createdAt,value
2023-04-14T00:00:36.627Z,100848.16
2023-04-14T00:03:03.880Z,100843.19
2023-04-14T00:05:31.735Z,100843.59
2023-04-14T00:07:58.162Z,100845.63
2023-04-14T00:10:24.869Z,100851.63
2023-04-14T00:12:51.449Z,100844.59
2023-04-14T00:15:18.123Z,100848.50
2023-04-14T00:17:44.822Z,100847.66
2023-04-14T00:20:11.363Z,100845.97
2023-04-14T00:22:37.778Z,100850.97
2023-04-14T00:25:04.434Z,100856.34
2023-04-14T00:27:31.184Z,100848.50
2023-04-14T00:29:57.787Z,100851.72
2023-04-14T00:32:24.249Z,100849.03
2023-04-14T00:34:50.829Z,100848.41
2023-04-14T00:37:17.364Z,100855.59
2023-04-14T00:39:43.824Z,100841.38
2023-04-14T00:42:10.226Z,100852.09
2023-04-14T00:44:36.628Z,100853.75
2023-04-14T00:47:03.742Z,100848.41
2023-04-14T00:49:30.372Z,100853.94
2023-04-14T00:51:57.471Z,100854.50
2023-04-14T00:54:25.048Z,100851.19
2023-04-14T00:56:51.861Z,100855.34
2023-04-14T00:59:18.353Z,100859.47
2023-04-14T01:01:45.053Z,100858.72
2023-04-14T01:04:12.235Z,100864.91
2023-04-14T01:06:38.757Z,100855.41
2023-04-14T01:09:06.397Z,100875.28
2023-04-14T01:12:07.135Z,100872.59
2023-04-14T01:14:58.183Z,100870.75
2023-04-14T01:17:37.395Z,100873.69
2023-04-14T01:20:37.545Z,100872.66
2023-04-14T01:23:17.540Z,100876.34
2023-04-14T01:26:02.798Z,100876.34
2023-04-14T01:28:36.934Z,100872.66
2023-04-14T01:31:38.314Z,100870.81
2023-04-14T01:34:20.865Z,100867.56
2023-04-14T01:36:55.439Z,100875.16
2023-04-14T01:39:26.466Z,100876.34
2023-04-14T01:41:56.955Z,100875.34
2023-04-14T01:44:23.932Z,100879.03
2023-04-14T01:46:53.417Z,100878.22
2023-04-14T01:49:22.383Z,100875.34
2023-04-14T01:51:50.497Z,100871.19
2023-04-14T01:54:19.846Z,100876.09
2023-04-14T01:56:47.464Z,100876.44
2023-04-14T01:59:15.893Z,100876.84
2023-04-14T02:01:44.114Z,100880.72
2023-04-14T02:04:11.707Z,100884.22
2023-04-14T02:06:40.614Z,100880.91
2023-04-14T02:09:10.396Z,100880.06
2023-04-14T02:11:37.649Z,100888.00
2023-04-14T02:14:05.970Z,100889.78
2023-04-14T02:16:35.966Z,100902.53
2023-04-14T02:19:05.132Z,100893.00
2023-04-14T02:21:35.464Z,100894.22
2023-04-14T02:24:03.543Z,100893.72
2023-04-14T02:26:33.748Z,100900.28
2023-04-14T02:29:20.367Z,100904.00
2023-04-14T02:31:54.899Z,100895.78
2023-04-14T02:34:25.261Z,100897.44
2023-04-14T02:36:55.270Z,100901.94
2023-04-14T02:39:29.494Z,100908.78
2023-04-14T02:42:13.794Z,100914.69
2023-04-14T02:44:48.557Z,100910.34
2023-04-14T02:47:23.802Z,100912.38
2023-04-14T02:49:52.875Z,100907.09
2023-04-14T02:52:22.080Z,100914.22
2023-04-14T02:54:50.056Z,100917.72
2023-04-14T02:57:17.738Z,100918.56
2023-04-14T02:59:47.952Z,100914.84
2023-04-14T03:02:17.424Z,100914.50
2023-04-14T03:04:47.980Z,100928.50
2023-04-14T03:07:24.140Z,100915.31
2023-04-14T03:09:51.650Z,100925.56
2023-04-14T03:12:19.970Z,100921.97
2023-04-14T03:14:47.604Z,100919.63
2023-04-14T03:17:15.470Z,100922.31
2023-04-14T03:19:42.777Z,100917.31
2023-04-14T03:22:11.003Z,100917.06
2023-04-14T03:24:38.870Z,100923.22
2023-04-14T03:27:10.688Z,100924.78
2023-04-14T03:29:44.576Z,100934.53
2023-04-14T03:32:13.469Z,100928.06
2023-04-14T03:34:46.638Z,100931.13
2023-04-14T03:37:17.882Z,100933.09
2023-04-14T03:39:50.575Z,100938.19
2023-04-14T03:42:20.813Z,100933.00
2023-04-14T03:44:53.069Z,100938.72
2023-04-14T03:47:23.568Z,100931.06
2023-04-14T03:49:57.087Z,100934.06
2023-04-14T03:52:24.917Z,100937.09
2023-04-14T03:54:54.941Z,100943.00
2023-04-14T03:57:23.248Z,100939.50
2023-04-14T03:59:52.281Z,100937.28
2023-04-14T04:02:22.784Z,100940.97
2023-04-14T04:04:50.026Z,100935.97
2023-04-14T04:07:19.286Z,100935.53
2023-04-14T04:09:47.226Z,100939.19
2023-04-14T04:12:16.291Z,100942.06
2023-04-14T04:14:42.785Z,100937.88
2023-04-14T04:17:15.420Z,100937.88
2023-04-14T04:19:44.631Z,100944.22
2023-04-14T04:22:14.226Z,100943.56
2023-04-14T04:24:42.446Z,100947.25
2023-04-14T04:27:26.642Z,100943.56
2023-04-14T04:29:57.419Z,100947.91
2023-04-14T04:32:25.082Z,100955.28
2023-04-14T04:34:52.965Z,100955.16
2023-04-14T04:37:21.135Z,100959.16
2023-04-14T04:39:50.583Z,100957.31
2023-04-14T04:42:18.773Z,100968.88
2023-04-14T04:44:45.248Z,100969.03
2023-04-14T04:47:12.680Z,100962.00
2023-04-14T04:49:39.082Z,100953.31
2023-04-14T04:52:05.647Z,100967.34
2023-04-14T04:54:32.178Z,100965.00
2023-04-14T04:56:58.839Z,100969.53
2023-04-14T04:59:25.940Z,100966.84
2023-04-14T05:01:52.591Z,100961.69
2023-04-14T05:04:19.248Z,100966.50
2023-04-14T05:06:45.732Z,100971.84
2023-04-14T05:09:12.237Z,100969.00
2023-04-14T05:11:38.717Z,100974.81
2023-04-14T05:14:05.263Z,100974.28
2023-04-14T05:16:31.976Z,100964.25
2023-04-14T05:18:59.216Z,100958.56
2023-04-14T05:21:25.867Z,100970.56
2023-04-14T05:23:52.260Z,100964.00
2023-04-14T05:28:47.950Z,100963.31
2023-04-14T05:31:14.555Z,100967.13
2023-04-14T05:33:41.012Z,100961.41
2023-04-14T05:36:07.579Z,100953.84
2023-04-14T05:38:38.884Z,100957.84
2023-04-14T05:41:05.920Z,100962.66
2023-04-14T05:43:32.340Z,100955.75
2023-04-14T05:45:58.772Z,100970.91
2023-04-14T05:48:27.942Z,100961.50
2023-04-14T05:50:54.320Z,100962.44
2023-04-14T05:53:20.711Z,100968.75
2023-04-14T05:55:48.664Z,100968.00
2023-04-14T05:58:15.314Z,100969.59
2023-04-14T06:00:41.721Z,100957.16
2023-04-14T06:03:08.424Z,100958.56
2023-04-14T06:05:35.286Z,100962.63
2023-04-14T06:08:01.791Z,100962.16
2023-04-14T06:10:28.245Z,100954.88
2023-04-14T06:12:54.719Z,100950.41
2023-04-14T06:15:21.083Z,100950.13
2023-04-14T06:17:48.270Z,100949.03
2023-04-14T06:20:14.750Z,100950.19
2023-04-14T06:22:42.147Z,100955.91
2023-04-14T06:25:08.666Z,100955.59
2023-04-14T06:27:35.715Z,100954.44
2023-04-14T06:30:02.259Z,100952.94
2023-04-14T06:32:28.705Z,100951.41
2023-04-14T06:34:55.236Z,100946.53
2023-04-14T06:37:21.770Z,100941.69
2023-04-14T06:39:48.222Z,100940.34
2023-04-14T06:42:15.429Z,100939.63
2023-04-14T06:44:41.849Z,100937.66
2023-04-14T06:47:09.348Z,100940.06
2023-04-14T06:49:37.055Z,100935.56
2023-04-14T06:52:05.090Z,100933.25
2023-04-14T06:54:32.038Z,100938.69
2023-04-14T06:57:00.109Z,100930.09
2023-04-14T06:59:29.160Z,100927.84
2023-04-14T07:01:55.944Z,100939.28
2023-04-14T07:04:22.878Z,100933.50
2023-04-14T07:06:49.358Z,100945.75
2023-04-14T07:09:16.257Z,100942.25
2023-04-14T07:11:42.870Z,100925.06
2023-04-14T07:14:09.313Z,100927.59
2023-04-14T07:16:35.818Z,100922.56
2023-04-14T07:19:02.296Z,100922.22
2023-04-14T07:21:28.857Z,100920.47
2023-04-14T07:23:55.242Z,100923.47
2023-04-14T07:26:21.660Z,100915.41
2023-04-14T07:28:48.107Z,100920.91
2023-04-14T07:31:14.593Z,100912.66
2023-04-14T07:33:41.100Z,100915.09
2023-04-14T07:36:09.308Z,100912.44
2023-04-14T07:38:35.715Z,100912.47
2023-04-14T07:41:04.698Z,100913.06
2023-04-14T07:43:40.361Z,100923.06
2023-04-14T07:46:08.504Z,100914.03
2023-04-14T07:48:36.857Z,100914.53
2023-04-14T07:51:05.164Z,100920.41
2023-04-14T07:53:32.825Z,100923.47
2023-04-14T07:55:59.497Z,100918.81
2023-04-14T07:58:28.562Z,100920.88
2023-04-14T08:00:55.719Z,100918.41
2023-04-14T08:03:22.310Z,100917.25
2023-04-14T08:05:48.944Z,100913.16
2023-04-14T08:08:15.523Z,100908.63
2023-04-14T08:10:42.487Z,100904.50
2023-04-14T08:13:09.541Z,100918.13
2023-04-14T08:15:36.177Z,100906.94
2023-04-14T08:18:02.929Z,100910.78
2023-04-14T08:20:29.380Z,100916.75
2023-04-14T08:22:56.890Z,100921.25
2023-04-14T08:25:23.897Z,100912.69
2023-04-14T08:27:50.422Z,100911.09
2023-04-14T08:30:17.074Z,100914.28
2023-04-14T08:32:43.732Z,100909.38
2023-04-14T08:35:40.120Z,100921.72
2023-04-14T08:37:56.701Z,100918.41
2023-04-14T08:40:30.668Z,100923.59
2023-04-14T08:42:57.104Z,100916.94
2023-04-14T08:45:23.957Z,100925.72
2023-04-14T08:47:55.006Z,100923.78
2023-04-14T08:50:26.133Z,100916.69
2023-04-14T08:52:56.370Z,100920.75
2023-04-14T08:55:25.266Z,100919.00
2023-04-14T08:57:52.110Z,100911.09
2023-04-14T09:00:19.552Z,100913.47
2023-04-14T09:02:46.907Z,100911.88
2023-04-14T09:05:13.794Z,100915.16
2023-04-14T09:07:42.617Z,100914.31
2023-04-14T09:10:11.185Z,100912.09
2023-04-14T09:12:41.559Z,100908.13
2023-04-14T09:15:08.933Z,100903.56
2023-04-14T09:17:36.568Z,100891.97
2023-04-14T09:20:35.031Z,100906.97
2023-04-14T09:22:50.361Z,100896.88
2023-04-14T09:25:19.116Z,100891.78
2023-04-14T09:27:45.911Z,100887.16
2023-04-14T09:30:12.611Z,100897.69
2023-04-14T09:32:40.335Z,100896.38
2023-04-14T09:35:07.727Z,100901.00
2023-04-14T09:37:44.575Z,100895.69
2023-04-14T09:40:11.951Z,100892.13
2023-04-14T09:42:39.934Z,100895.22
2023-04-14T09:45:06.983Z,100894.09
2023-04-14T09:47:33.462Z,100883.53
2023-04-14T09:50:03.377Z,100887.31
2023-04-14T09:52:48.381Z,100893.75
2023-04-14T09:55:16.838Z,100884.31
2023-04-14T09:57:47.217Z,100875.84
2023-04-14T10:00:17.858Z,100878.06
2023-04-14T10:02:58.167Z,100877.88
2023-04-14T10:05:28.359Z,100885.84
2023-04-14T10:07:55.708Z,100883.38
2023-04-14T10:10:23.482Z,100875.72
2023-04-14T10:12:52.943Z,100875.25
2023-04-14T10:15:19.546Z,100862.50
2023-04-14T10:17:46.089Z,100865.41
2023-04-14T10:20:12.889Z,100862.00
2023-04-14T10:22:41.349Z,100859.81
2023-04-14T10:25:09.134Z,100848.44
2023-04-14T10:27:36.637Z,100856.78
2023-04-14T10:30:05.473Z,100851.22
2023-04-14T10:32:35.257Z,100848.78
2023-04-14T10:35:13.324Z,100845.38
2023-04-14T10:37:49.309Z,100858.25
2023-04-14T10:40:15.690Z,100855.78
2023-04-14T10:42:55.835Z,100846.84
2023-04-14T10:45:22.669Z,100852.63
2023-04-14T10:47:52.610Z,100848.13
2023-04-14T10:50:24.134Z,100841.72
2023-04-14T10:52:54.237Z,100845.00
2023-04-14T10:55:25.395Z,100840.41
2023-04-14T10:57:54.357Z,100842.28
2023-04-14T11:00:21.548Z,100849.94
2023-04-14T11:03:20.809Z,100836.13
2023-04-14T11:05:52.014Z,100840.00
2023-04-14T11:08:35.454Z,100838.09
2023-04-14T11:11:04.469Z,100836.63
2023-04-14T11:13:32.528Z,100837.63
2023-04-14T11:16:07.817Z,100827.19
2023-04-14T11:18:37.368Z,100832.34
2023-04-14T11:21:11.914Z,100829.56
2023-04-14T11:23:38.565Z,100830.59
2023-04-14T11:26:06.932Z,100820.72
2023-04-14T11:28:36.052Z,100838.81
2023-04-14T11:31:08.277Z,100822.59
2023-04-14T11:33:39.684Z,100824.75
2023-04-14T11:36:07.466Z,100826.06
2023-04-14T11:38:35.914Z,100827.13
2023-04-14T11:41:02.526Z,100826.31
2023-04-14T11:43:32.461Z,100824.81
2023-04-14T11:46:03.035Z,100824.41
2023-04-14T11:48:30.673Z,100824.44
2023-04-14T11:51:02.625Z,100826.03
2023-04-14T11:53:29.162Z,100827.75
2023-04-14T11:55:57.361Z,100825.22
2023-04-14T11:58:25.748Z,100829.84
2023-04-14T12:00:56.069Z,100834.28
2023-04-14T12:03:30.101Z,100819.66
2023-04-14T12:06:01.662Z,100818.56
2023-04-14T12:08:32.584Z,100826.69
2023-04-14T12:11:11.633Z,100817.94
2023-04-14T12:13:44.936Z,100819.91
2023-04-14T12:16:12.167Z,100818.44
2023-04-14T12:18:39.539Z,100815.69
2023-04-14T12:21:08.779Z,100825.03
2023-04-14T12:23:39.715Z,100817.75
2023-04-14T12:26:11.815Z,100808.81
2023-04-14T12:28:42.062Z,100816.59
2023-04-14T12:31:09.779Z,100806.78
2023-04-14T12:33:36.386Z,100809.28
2023-04-14T12:36:07.813Z,100801.16
2023-04-14T12:38:34.693Z,100802.22
2023-04-14T12:41:01.732Z,100808.78
2023-04-14T12:43:29.169Z,100797.25
2023-04-14T12:45:55.768Z,100800.22
2023-04-14T12:48:22.385Z,100791.66
2023-04-14T12:50:50.171Z,100797.41
2023-04-14T12:53:28.700Z,100776.03
2023-04-14T12:56:13.891Z,100770.25
2023-04-14T12:58:42.650Z,100787.97
2023-04-14T13:01:10.613Z,100776.91
2023-04-14T13:03:50.297Z,100785.44
2023-04-14T13:06:19.050Z,100787.06
2023-04-14T13:08:47.113Z,100776.91
2023-04-14T13:11:14.672Z,100778.31
2023-04-14T13:13:41.501Z,100779.44
2023-04-14T13:16:12.833Z,100773.06
2023-04-14T13:18:42.567Z,100782.88
2023-04-14T13:21:09.540Z,100775.41
2023-04-14T13:23:36.662Z,100777.13
2023-04-14T13:26:03.226Z,100781.47
2023-04-14T13:28:29.761Z,100775.88
2023-04-14T13:30:57.562Z,100769.84
2023-04-14T13:33:25.656Z,100780.91
2023-04-14T13:35:53.007Z,100768.59
2023-04-14T13:38:19.444Z,100776.69
2023-04-14T13:40:47.977Z,100765.31
2023-04-14T13:43:16.810Z,100760.97
2023-04-14T13:45:43.418Z,100750.53
2023-04-14T13:48:09.937Z,100765.94
2023-04-14T13:50:36.535Z,100765.03
2023-04-14T13:53:03.210Z,100757.88
2023-04-14T13:55:29.675Z,100757.66
2023-04-14T13:57:56.248Z,100754.81
2023-04-14T14:00:22.733Z,100758.75
2023-04-14T14:02:49.304Z,100751.25
2023-04-14T14:05:15.892Z,100749.63
2023-04-14T14:07:43.000Z,100739.91
2023-04-14T14:10:10.826Z,100738.09
2023-04-14T14:12:37.587Z,100734.66
2023-04-14T14:15:05.450Z,100719.41
2023-04-14T14:17:32.045Z,100724.31
2023-04-14T14:19:59.113Z,100719.56
2023-04-14T14:22:26.145Z,100723.81
2023-04-14T14:24:58.544Z,100721.72
2023-04-14T14:27:31.692Z,100725.28
2023-04-14T14:29:58.272Z,100722.56
2023-04-14T14:32:24.780Z,100717.34
2023-04-14T14:34:51.257Z,100716.97
2023-04-14T14:37:18.726Z,100708.81
2023-04-14T14:39:45.222Z,100709.34
2023-04-14T14:42:11.946Z,100701.84
2023-04-14T14:44:38.337Z,100703.25
2023-04-14T14:47:06.000Z,100710.09
2023-04-14T14:49:32.638Z,100697.59
2023-04-14T14:51:59.097Z,100695.88
2023-04-14T14:54:25.448Z,100701.03
2023-04-14T14:56:51.903Z,100686.16
2023-04-14T14:59:18.478Z,100695.03
2023-04-14T15:01:45.108Z,100686.13
2023-04-14T15:04:12.083Z,100686.22
2023-04-14T15:06:38.634Z,100680.28
2023-04-14T15:09:05.424Z,100679.06
2023-04-14T15:11:31.942Z,100675.72
2023-04-14T15:13:58.640Z,100676.22
2023-04-14T15:16:25.481Z,100681.13
2023-04-14T15:18:51.981Z,100674.91
2023-04-14T15:21:18.641Z,100677.41
2023-04-14T15:23:45.619Z,100682.34
2023-04-14T15:26:13.975Z,100679.97
2023-04-14T15:28:41.078Z,100686.28
2023-04-14T15:31:08.161Z,100686.13
2023-04-14T15:33:34.657Z,100686.91
2023-04-14T15:36:01.543Z,100678.59
2023-04-14T15:38:28.013Z,100685.09
2023-04-14T15:40:54.664Z,100685.81
2023-04-14T15:43:21.521Z,100683.41
2023-04-14T15:45:47.995Z,100679.69
2023-04-14T15:48:14.408Z,100679.28
2023-04-14T15:50:44.660Z,100680.38
2023-04-14T15:53:12.059Z,100682.41
2023-04-14T15:55:39.568Z,100685.06
2023-04-14T15:58:06.436Z,100690.31
2023-04-14T16:00:33.355Z,100686.41
2023-04-14T16:03:01.868Z,100689.63
2023-04-14T16:05:28.733Z,100687.47
2023-04-14T16:07:55.485Z,100688.38
2023-04-14T16:10:22.363Z,100696.88
2023-04-14T16:12:50.288Z,100693.09
2023-04-14T16:15:17.087Z,100694.22
2023-04-14T16:17:43.655Z,100690.28
2023-04-14T16:20:12.222Z,100688.41
2023-04-14T16:22:38.648Z,100686.78
2023-04-14T16:25:06.727Z,100687.66
2023-04-14T16:27:33.994Z,100679.88
2023-04-14T16:30:00.464Z,100678.94
2023-04-14T16:32:27.415Z,100672.41
2023-04-14T16:34:53.900Z,100673.81
2023-04-14T16:37:21.004Z,100672.41
2023-04-14T16:39:47.392Z,100677.75
2023-04-14T16:42:13.793Z,100670.91
2023-04-14T16:44:40.282Z,100672.06
2023-04-14T16:47:06.732Z,100669.06
2023-04-14T16:49:33.168Z,100675.59
2023-04-14T16:52:00.928Z,100670.59
2023-04-14T16:54:27.573Z,100680.09
2023-04-14T16:56:53.994Z,100688.41
2023-04-14T16:59:20.368Z,100692.47
2023-04-14T17:01:47.002Z,100685.34
2023-04-14T17:04:13.822Z,100689.66
2023-04-14T17:06:40.539Z,100688.81
2023-04-14T17:09:06.977Z,100694.78
2023-04-14T17:11:33.436Z,100700.84
2023-04-14T17:14:00.020Z,100689.59
2023-04-14T17:16:27.281Z,100698.97
2023-04-14T17:18:53.737Z,100688.25
2023-04-14T17:21:20.164Z,100692.88
2023-04-14T17:23:46.606Z,100694.75
2023-04-14T17:26:16.108Z,100698.53
2023-04-14T17:28:42.737Z,100697.41
2023-04-14T17:31:13.820Z,100693.53
2023-04-14T17:33:44.716Z,100688.59
2023-04-14T17:36:15.214Z,100706.56
2023-04-14T17:38:42.799Z,100699.22
2023-04-14T17:41:10.965Z,100698.09
2023-04-14T17:43:39.463Z,100699.44
2023-04-14T17:46:06.350Z,100703.25
2023-04-14T17:48:33.438Z,100710.31
2023-04-14T17:51:01.444Z,100717.91
2023-04-14T17:53:29.193Z,100710.84
2023-04-14T17:55:56.131Z,100720.06
2023-04-14T17:58:24.116Z,100717.47
2023-04-14T18:00:51.732Z,100718.84
2023-04-14T18:03:18.320Z,100720.91
2023-04-14T18:05:44.785Z,100718.13
2023-04-14T18:08:11.208Z,100720.94
2023-04-14T18:10:38.965Z,100726.28
2023-04-14T18:13:05.664Z,100722.81
2023-04-14T18:15:32.212Z,100728.41
2023-04-14T18:17:58.649Z,100724.28
2023-04-14T18:20:26.230Z,100728.00
2023-04-14T18:22:57.511Z,100730.72
2023-04-14T18:25:23.922Z,100732.84
2023-04-14T18:30:20.306Z,100743.84
2023-04-14T18:32:47.037Z,100742.69
2023-04-14T18:35:14.862Z,100746.63
2023-04-14T18:37:42.636Z,100746.44
2023-04-14T18:40:09.342Z,100751.66
2023-04-14T18:42:36.073Z,100741.16
2023-04-14T18:45:03.465Z,100746.84
2023-04-14T18:47:29.934Z,100748.66
2023-04-14T18:49:56.368Z,100743.81
2023-04-14T18:52:22.837Z,100747.44
2023-04-14T18:54:49.481Z,100750.31
2023-04-14T18:57:16.307Z,100757.25
2023-04-14T18:59:42.786Z,100753.63
2023-04-14T19:02:13.093Z,100764.47
2023-04-14T19:04:40.745Z,100759.84
2023-04-14T19:07:07.230Z,100771.03
2023-04-14T19:09:35.944Z,100767.25
2023-04-14T19:12:02.461Z,100767.25
2023-04-14T19:14:29.378Z,100772.34
2023-04-14T19:16:55.772Z,100776.84
2023-04-14T19:19:22.198Z,100777.78
2023-04-14T19:21:48.773Z,100775.56
2023-04-14T19:24:15.268Z,100783.09
2023-04-14T19:26:41.688Z,100789.47
2023-04-14T19:29:08.137Z,100784.06
2023-04-14T19:31:34.509Z,100790.63
2023-04-14T19:34:00.901Z,100787.13
2023-04-14T19:36:27.555Z,100797.47
2023-04-14T19:38:53.935Z,100794.88
2023-04-14T19:41:20.611Z,100803.34
2023-04-14T19:43:47.125Z,100814.50
2023-04-14T19:46:13.660Z,100810.25
2023-04-14T19:48:40.390Z,100798.72
2023-04-14T19:51:06.771Z,100803.03
2023-04-14T19:53:33.473Z,100809.13
2023-04-14T19:55:59.998Z,100810.19
2023-04-14T19:58:28.361Z,100806.50
2023-04-14T20:00:58.698Z,100810.09
2023-04-14T20:03:25.971Z,100816.69
2023-04-14T20:05:57.105Z,100806.28
2023-04-14T20:08:25.052Z,100804.50
2023-04-14T20:10:53.163Z,100809.63
2023-04-14T20:13:21.109Z,100804.09
2023-04-14T20:15:49.046Z,100807.94
2023-04-14T20:18:17.642Z,100798.25
2023-04-14T20:20:45.231Z,100803.09
2023-04-14T20:23:11.704Z,100790.97
2023-04-14T20:25:38.630Z,100799.13
2023-04-14T20:28:06.168Z,100806.28
2023-04-14T20:30:32.739Z,100805.53
2023-04-14T20:33:00.610Z,100809.34
2023-04-14T20:35:27.941Z,100810.59
2023-04-14T20:37:54.366Z,100809.19
2023-04-14T20:40:21.017Z,100813.16
2023-04-14T20:42:47.825Z,100812.84
2023-04-14T20:45:14.482Z,100803.53
2023-04-14T20:47:41.263Z,100798.81
2023-04-14T20:50:08.623Z,100802.75
2023-04-14T20:52:35.543Z,100813.03
2023-04-14T20:55:03.531Z,100806.00
2023-04-14T20:57:29.989Z,100806.91
2023-04-14T20:59:56.618Z,100801.59
2023-04-14T21:02:23.285Z,100800.00
2023-04-14T21:04:49.988Z,100797.34
2023-04-14T21:07:16.385Z,100790.13
2023-04-14T21:09:42.848Z,100799.28
2023-04-14T21:12:15.398Z,100801.97
2023-04-14T21:15:40.473Z,100797.84
2023-04-14T21:17:29.022Z,100805.97
2023-04-14T21:19:55.417Z,100790.63
2023-04-14T21:22:22.376Z,100791.66
2023-04-14T21:24:49.629Z,100797.28
2023-04-14T21:27:17.339Z,100791.06
2023-04-14T21:29:44.646Z,100790.44
2023-04-14T21:32:11.568Z,100797.75
2023-04-14T21:34:38.089Z,100795.28
2023-04-14T21:37:04.548Z,100801.72
2023-04-14T21:39:33.023Z,100804.84
2023-04-14T21:42:00.371Z,100802.16
2023-04-14T21:44:27.194Z,100807.78
2023-04-14T21:46:54.866Z,100810.69
2023-04-14T21:49:21.890Z,100803.63
2023-04-14T21:51:50.175Z,100808.63
2023-04-14T21:54:17.042Z,100807.22
2023-04-14T21:56:43.533Z,100808.44
2023-04-14T21:59:09.923Z,100805.34
2023-04-14T22:01:36.450Z,100802.47
2023-04-14T22:04:03.712Z,100813.25
2023-04-14T22:06:30.364Z,100801.28
2023-04-14T22:08:56.816Z,100800.47
2023-04-14T22:11:23.315Z,100808.56
2023-04-14T22:13:49.806Z,100804.66
2023-04-14T22:16:16.361Z,100802.38
2023-04-14T22:18:43.288Z,100813.59
2023-04-14T22:21:10.591Z,100817.53
2023-04-14T22:23:38.554Z,100815.03
2023-04-14T22:26:05.133Z,100813.81
2023-04-14T22:28:31.560Z,100819.19
2023-04-14T22:30:58.159Z,100812.97
2023-04-14T22:33:24.777Z,100814.63
2023-04-14T22:35:51.415Z,100816.06
2023-04-14T22:38:17.845Z,100815.03
2023-04-14T22:40:44.422Z,100822.50
2023-04-14T22:43:10.867Z,100834.31
2023-04-14T22:45:41.413Z,100831.19
2023-04-14T22:48:09.961Z,100831.41
2023-04-14T22:50:36.684Z,100836.38
2023-04-14T22:53:03.654Z,100840.72
2023-04-14T22:55:30.662Z,100847.34
2023-04-14T22:57:57.080Z,100848.59
2023-04-14T23:00:23.502Z,100841.97
2023-04-14T23:02:53.614Z,100839.50
2023-04-14T23:05:20.131Z,100841.38
2023-04-14T23:07:47.092Z,100842.41
2023-04-14T23:10:14.211Z,100846.13
2023-04-14T23:12:40.890Z,100840.34
2023-04-14T23:15:07.798Z,100847.59
2023-04-14T23:17:34.919Z,100850.28
2023-04-14T23:20:02.377Z,100855.28
2023-04-14T23:22:29.641Z,100849.47
2023-04-14T23:24:56.032Z,100854.44
2023-04-14T23:27:22.969Z,100856.09
2023-04-14T23:29:49.399Z,100858.59
2023-04-14T23:32:15.769Z,100857.34
2023-04-14T23:34:42.160Z,100863.75
2023-04-14T23:37:08.600Z,100859.41
2023-04-14T23:39:35.530Z,100859.22
2023-04-14T23:42:01.963Z,100858.16
2023-04-14T23:44:28.402Z,100862.91
2023-04-14T23:46:55.185Z,100855.88
2023-04-14T23:49:23.792Z,100863.13
2023-04-14T23:51:59.085Z,100865.19
2023-04-14T23:54:25.977Z,100860.25
2023-04-14T23:56:52.341Z,100860.25
2023-04-14T23:59:18.867Z,100860.66
